Time;durP1;ratioP1;P1;durP2;ratioP2;P2;SDS_P1;SDS_P2;PMS_P1;PMS_P2;Temp;Humidity;BMP_temperature;BMP_pressure;BME280_temperature;BME280_humidity;BME280_pressure;Samples;Min_cycle;Max_cycle;Signal;HPM_P1;HPM_P2
2022/01/08 00:02:30;;;;;;;29.50;13.07;;;;;2.90;95912.00;;;;8384011;28;20331;-78
2022/01/08 00:06:33;;;;;;;34.03;14.03;;;;;2.90;95905.00;;;;8384953;28;20377;-77
2022/01/08 00:10:38;;;;;;;31.80;12.40;;;;;2.90;95900.00;;;;8389333;28;20249;-78
2022/01/08 00:14:42;;;;;;;27.73;12.37;;;;;3.00;95904.00;;;;8385500;28;20647;-77
2022/01/08 00:18:45;;;;;;;27.73;12.87;;;;;3.00;95894.00;;;;8385837;28;20254;-76
2022/01/08 00:22:52;;;;;;;28.90;12.33;;;;;3.00;95878.00;;;;8383453;28;20240;-76
2022/01/08 00:26:56;;;;;;;28.77;12.27;;;;;3.00;95871.00;;;;8376962;28;20225;-76
2022/01/08 00:31:00;;;;;;;28.43;12.73;;;;;3.00;95876.00;;;;8382201;28;20318;-76
2022/01/08 00:35:04;;;;;;;24.13;11.77;;;;;3.00;95872.00;;;;8379673;28;20242;-76
2022/01/08 00:39:07;;;;;;;27.43;11.63;;;;;3.00;95856.00;;;;8382787;28;20321;-75
2022/01/08 00:43:12;;;;;;;26.37;12.17;;;;;3.00;95860.00;;;;8384453;28;20669;-75
2022/01/08 00:47:15;;;;;;;26.47;12.47;;;;;3.00;95850.00;;;;8383612;28;20231;-76
2022/01/08 00:51:19;;;;;;;23.60;11.20;;;;;2.90;95846.00;;;;8382504;28;20241;-76
2022/01/08 00:55:22;;;;;;;22.60;11.27;;;;;2.80;95858.00;;;;8383647;28;20255;-76
2022/01/08 00:59:27;;;;;;;28.10;11.30;;;;;2.80;95856.00;;;;8384820;28;20262;-77
2022/01/08 01:03:30;;;;;;;22.87;11.43;;;;;2.60;95855.00;;;;8380495;28;20230;-76
2022/01/08 01:07:34;;;;;;;25.87;12.27;;;;;2.50;95846.00;;;;8375624;28;20226;-76
2022/01/08 01:11:37;;;;;;;27.30;11.80;;;;;2.50;95848.00;;;;8382025;28;20695;-76
2022/01/08 01:15:42;;;;;;;25.23;11.97;;;;;2.40;95839.00;;;;8380165;28;20886;-77
2022/01/08 01:19:47;;;;;;;25.10;12.50;;;;;2.30;95838.00;;;;8385222;28;20317;-77
2022/01/08 01:23:51;;;;;;;27.10;12.13;;;;;2.20;95833.00;;;;8375185;28;20253;-77
2022/01/08 01:41:15;;;;;;;21.87;11.03;;;;;2.00;95817.00;;;;8383042;28;20636;-76
2022/01/08 01:49:43;;;;;;;23.27;10.90;;;;;2.20;95797.00;;;;8375874;28;20697;-75
2022/01/08 01:53:47;;;;;;;20.43;10.63;;;;;2.30;95794.00;;;;8381560;28;20742;-76
2022/01/08 01:57:51;;;;;;;15.87;8.97;;;;;2.20;95782.00;;;;8382688;28;20258;-76
2022/01/08 02:01:55;;;;;;;18.00;9.23;;;;;2.10;95781.00;;;;8376782;28;20272;-76
2022/01/08 02:06:00;;;;;;;16.13;9.30;;;;;2.10;95772.00;;;;8365306;28;20364;-77
2022/01/08 02:10:04;;;;;;;18.90;9.73;;;;;2.00;95775.00;;;;8366957;28;20888;-76
2022/01/08 02:14:07;;;;;;;18.30;9.70;;;;;2.10;95772.00;;;;8378809;28;20234;-78
2022/01/08 02:18:11;;;;;;;20.00;10.70;;;;;2.20;95758.00;;;;8379759;28;20257;-76
2022/01/08 02:22:20;;;;;;;21.77;10.10;;;;;2.30;95764.00;;;;8379009;28;20743;-77
2022/01/08 02:26:23;;;;;;;18.57;9.33;;;;;2.30;95760.00;;;;8374937;28;20892;-76
2022/01/08 02:30:26;;;;;;;15.97;8.90;;;;;2.40;95747.00;;;;8380051;28;20254;-76
2022/01/08 02:34:30;;;;;;;19.97;8.53;;;;;2.40;95747.00;;;;8369671;28;20230;-76
2022/01/08 02:38:34;;;;;;;16.87;8.50;;;;;2.40;95738.00;;;;8382291;28;20246;-77
2022/01/08 02:42:48;;;;;;;16.50;8.50;;;;;2.30;95730.00;;;;8366727;28;20325;-77
2022/01/08 02:46:51;;;;;;;13.30;7.60;;;;;2.20;95723.00;;;;8379823;28;20261;-78
2022/01/08 02:50:55;;;;;;;13.53;6.90;;;;;2.00;95699.00;;;;8379048;28;20257;-78
2022/01/08 02:54:59;;;;;;;10.93;7.00;;;;;1.80;95696.00;;;;8379547;28;20284;-78
2022/01/08 02:59:04;;;;;;;10.67;6.67;;;;;1.60;95688.00;;;;8370829;28;20256;-78
2022/01/08 03:03:07;;;;;;;10.00;6.53;;;;;1.40;95686.00;;;;8399673;22;20256;-77
2022/01/08 03:07:10;;;;;;;9.90;6.40;;;;;1.20;95690.00;;;;8383165;28;20229;-76
2022/01/08 03:11:15;;;;;;;12.57;6.50;;;;;1.10;95678.00;;;;8382628;28;20231;-77
2022/01/08 03:15:20;;;;;;;10.27;6.67;;;;;0.90;95664.00;;;;8381132;28;20258;-77
2022/01/08 03:19:24;;;;;;;13.67;6.53;;;;;0.70;95654.00;;;;8382780;28;20292;-76
2022/01/08 03:23:35;;;;;;;11.23;6.80;;;;;0.50;95642.00;;;;8371504;28;20264;-77
2022/01/08 03:27:41;;;;;;;11.70;6.33;;;;;0.30;95638.00;;;;8370604;28;20282;-76
2022/01/08 03:31:44;;;;;;;10.23;6.57;;;;;0.20;95628.00;;;;8374695;28;20234;-76
2022/01/08 03:35:47;;;;;;;11.47;6.90;;;;;0.20;95625.00;;;;8362664;28;20245;-75
2022/01/08 03:39:50;;;;;;;12.23;6.27;;;;;0.00;95628.00;;;;8362366;28;20335;-74
2022/01/08 03:43:55;;;;;;;8.67;5.80;;;;;0.00;95617.00;;;;8377551;28;20387;-74
2022/01/08 03:48:19;;;;;;;10.20;6.20;;;;;-0.20;95625.00;;;;8363988;28;20665;-72
2022/01/08 03:52:22;;;;;;;12.13;5.97;;;;;-0.20;95611.00;;;;8374473;28;20227;-73
2022/01/08 03:56:25;;;;;;;7.50;5.47;;;;;-0.30;95607.00;;;;8376324;28;20793;-72
2022/01/08 04:00:31;;;;;;;10.73;6.10;;;;;-0.50;95613.00;;;;8376169;28;20226;-69
2022/01/08 04:04:35;;;;;;;10.20;5.60;;;;;-0.60;95619.00;;;;8374081;28;20735;-69
2022/01/08 04:08:38;;;;;;;9.67;6.20;;;;;-0.60;95604.00;;;;8381094;28;20224;-69
2022/01/08 04:12:45;;;;;;;11.40;6.83;;;;;-0.60;95605.00;;;;8380122;28;20247;-69
2022/01/08 04:16:52;;;;;;;13.93;6.60;;;;;-0.40;95595.00;;;;8380971;28;20323;-71
2022/01/08 04:21:12;;;;;;;12.10;6.00;;;;;-0.20;95588.00;;;;8381865;28;20224;-70
2022/01/08 04:25:17;;;;;;;13.80;6.30;;;;;-0.10;95586.00;;;;8382934;28;20308;-70
2022/01/08 04:29:20;;;;;;;11.30;6.20;;;;;0.10;95576.00;;;;8384949;28;20256;-70
2022/01/08 04:33:25;;;;;;;11.20;6.10;;;;;0.20;95578.00;;;;8376934;28;20320;-70
2022/01/08 04:37:28;;;;;;;9.73;6.03;;;;;0.30;95572.00;;;;8384568;28;20230;-69
2022/01/08 04:41:31;;;;;;;9.77;5.90;;;;;0.40;95569.00;;;;8387749;28;20231;-69
2022/01/08 04:45:35;;;;;;;10.13;5.77;;;;;0.40;95566.00;;;;8387695;28;20241;-71
2022/01/08 04:49:39;;;;;;;9.27;5.37;;;;;0.50;95568.00;;;;8385490;28;20325;-67
2022/01/08 04:53:42;;;;;;;9.80;5.93;;;;;0.50;95568.00;;;;8382939;28;20231;-68
2022/01/08 04:57:51;;;;;;;12.47;6.90;;;;;0.50;95569.00;;;;8383108;28;20225;-69
2022/01/08 05:01:54;;;;;;;11.53;7.03;;;;;0.50;95568.00;;;;8375192;28;20284;-70
2022/01/08 05:05:59;;;;;;;13.53;7.60;;;;;0.60;95563.00;;;;8371433;28;20254;-69
2022/01/08 05:10:02;;;;;;;14.80;8.43;;;;;0.70;95572.00;;;;8381721;28;20278;-69
2022/01/08 05:14:08;;;;;;;14.47;8.13;;;;;0.80;95566.00;;;;8381000;28;20310;-69
2022/01/08 05:18:11;;;;;;;14.97;8.13;;;;;0.90;95567.00;;;;8383487;28;20265;-69
2022/01/08 05:22:23;;;;;;;18.77;9.10;;;;;1.00;95567.00;;;;8382614;28;20328;-68
2022/01/08 05:26:28;;;;;;;14.70;8.40;;;;;1.10;95563.00;;;;8381097;28;20246;-68
2022/01/08 05:30:31;;;;;;;17.00;8.57;;;;;1.10;95565.00;;;;8382613;28;20424;-68
2022/01/08 05:34:35;;;;;;;14.47;8.10;;;;;1.20;95573.00;;;;8361467;28;22198;-69
2022/01/08 05:38:40;;;;;;;16.13;8.23;;;;;1.30;95582.00;;;;8383937;28;20236;-68
2022/01/08 05:42:43;;;;;;;15.07;8.33;;;;;1.40;95583.00;;;;8382841;28;20744;-68
2022/01/08 05:46:47;;;;;;;15.03;8.27;;;;;1.40;95572.00;;;;8383463;28;20253;-69
2022/01/08 05:50:51;;;;;;;18.03;8.70;;;;;1.40;95577.00;;;;8382201;28;20233;-67
2022/01/08 05:54:55;;;;;;;13.03;7.97;;;;;1.40;95571.00;;;;8382161;28;20315;-68
2022/01/08 05:58:58;;;;;;;12.80;7.67;;;;;1.40;95557.00;;;;8382991;28;20660;-68
2022/01/08 06:03:02;;;;;;;14.90;6.63;;;;;1.40;95539.00;;;;8372868;28;20892;-70
2022/01/08 06:07:05;;;;;;;13.17;6.70;;;;;1.40;95542.00;;;;8380606;28;20303;-68
2022/01/08 06:11:10;;;;;;;12.53;6.77;;;;;1.50;95545.00;;;;8383397;28;20229;-68
2022/01/08 06:15:13;;;;;;;13.17;7.17;;;;;1.50;95547.00;;;;8382542;28;20757;-68
2022/01/08 06:19:17;;;;;;;10.80;6.00;;;;;1.60;95557.00;;;;8377175;28;20256;-68
2022/01/08 06:23:20;;;;;;;11.73;6.60;;;;;1.60;95548.00;;;;8364559;28;20673;-69
2022/01/08 06:27:25;;;;;;;13.10;6.47;;;;;1.60;95546.00;;;;8381359;28;20222;-67
2022/01/08 06:31:28;;;;;;;8.27;4.60;;;;;1.60;95540.00;;;;8375598;28;20319;-68
2022/01/08 06:35:32;;;;;;;14.03;6.40;;;;;1.60;95534.00;;;;8380121;28;20321;-67
2022/01/08 06:39:35;;;;;;;14.73;6.70;;;;;1.60;95556.00;;;;8381791;28;20316;-69
2022/01/08 06:43:39;;;;;;;12.27;6.50;;;;;1.60;95553.00;;;;8381181;28;20714;-69
2022/01/08 06:47:45;;;;;;;12.57;6.10;;;;;1.60;95550.00;;;;8379199;28;20240;-70
2022/01/08 06:51:48;;;;;;;13.83;6.63;;;;;1.60;95543.00;;;;8381480;28;20225;-68
2022/01/08 06:55:52;;;;;;;10.03;5.07;;;;;1.60;95529.00;;;;8381472;28;20264;-69
2022/01/08 06:59:56;;;;;;;12.20;6.53;;;;;1.60;95525.00;;;;8375661;28;20985;-69
2022/01/08 07:03:59;;;;;;;8.83;4.53;;;;;1.60;95535.00;;;;8369927;28;20654;-71
2022/01/08 07:08:03;;;;;;;11.67;5.73;;;;;1.60;95528.00;;;;8381019;28;20246;-70
2022/01/08 07:12:07;;;;;;;9.67;5.07;;;;;1.60;95517.00;;;;8381550;28;20224;-72
2022/01/08 07:16:11;;;;;;;13.50;5.77;;;;;1.70;95526.00;;;;8375169;28;20589;-70
2022/01/08 07:20:15;;;;;;;15.70;5.53;;;;;1.70;95516.00;;;;8373275;28;20335;-69
2022/01/08 07:24:18;;;;;;;11.80;6.10;;;;;1.80;95522.00;;;;8379043;28;20308;-70
2022/01/08 07:28:21;;;;;;;11.93;6.53;;;;;1.80;95521.00;;;;8368604;28;20302;-70
2022/01/08 07:32:25;;;;;;;9.60;5.33;;;;;1.80;95528.00;;;;8384241;28;20305;-72
2022/01/08 07:36:29;;;;;;;7.40;4.63;;;;;1.80;95529.00;;;;8386647;28;20619;-70
2022/01/08 07:40:32;;;;;;;13.57;6.17;;;;;1.90;95522.00;;;;8384153;28;20305;-70
2022/01/08 07:44:35;;;;;;;8.37;4.90;;;;;1.90;95519.00;;;;8388369;28;20256;-72
2022/01/08 07:48:40;;;;;;;10.30;5.20;;;;;1.90;95522.00;;;;8381617;28;20243;-71
2022/01/08 07:52:44;;;;;;;7.83;4.77;;;;;2.00;95525.00;;;;8379579;28;20306;-70
2022/01/08 07:56:48;;;;;;;7.03;4.70;;;;;2.00;95521.00;;;;8381277;28;20303;-71
2022/01/08 08:00:53;;;;;;;8.70;5.07;;;;;2.10;95527.00;;;;8380234;28;20229;-71
2022/01/08 08:04:58;;;;;;;8.73;4.30;;;;;2.10;95531.00;;;;8380819;28;20329;-72
2022/01/08 08:09:01;;;;;;;5.53;3.63;;;;;2.20;95524.00;;;;8385320;28;20311;-72
2022/01/08 08:13:04;;;;;;;7.27;3.70;;;;;2.30;95534.00;;;;8384504;28;20604;-72
2022/01/08 08:17:07;;;;;;;5.13;3.60;;;;;2.30;95531.00;;;;8381971;28;20287;-73
2022/01/08 08:21:12;;;;;;;10.03;4.83;;;;;2.40;95535.00;;;;8384962;28;20362;-72
2022/01/08 08:25:15;;;;;;;7.80;5.43;;;;;2.50;95537.00;;;;8380019;28;20259;-72
2022/01/08 08:29:18;;;;;;;8.40;5.87;;;;;2.50;95530.00;;;;8385952;28;20227;-73
2022/01/08 08:33:21;;;;;;;4.47;3.80;;;;;2.60;95530.00;;;;8375069;28;20766;-73
2022/01/08 08:37:26;;;;;;;8.13;5.07;;;;;2.70;95518.00;;;;8384938;28;20674;-74
2022/01/08 08:41:29;;;;;;;6.30;3.77;;;;;2.80;95527.00;;;;8388149;28;20627;-72
2022/01/08 08:45:32;;;;;;;5.97;3.67;;;;;2.80;95517.00;;;;8386347;28;20642;-75
2022/01/08 08:49:36;;;;;;;7.53;3.30;;;;;2.90;95524.00;;;;8384081;28;20655;-73
2022/01/08 08:53:41;;;;;;;8.87;4.60;;;;;2.90;95520.00;;;;8385074;28;20321;-74
2022/01/08 08:57:45;;;;;;;4.97;3.83;;;;;2.90;95525.00;;;;8384767;28;20337;-72
2022/01/08 09:01:48;;;;;;;6.87;4.53;;;;;3.00;95532.00;;;;8376278;28;20696;-72
2022/01/08 09:05:51;;;;;;;5.57;3.57;;;;;3.00;95534.00;;;;8376914;28;20225;-74
2022/01/08 09:09:56;;;;;;;3.47;3.17;;;;;3.10;95544.00;;;;8383776;28;20306;-75
2022/01/08 09:13:59;;;;;;;2.67;2.43;;;;;3.10;95547.00;;;;8384356;28;20652;-76
2022/01/08 09:18:02;;;;;;;4.17;3.13;;;;;3.20;95548.00;;;;8377535;28;20255;-75
2022/01/08 09:22:06;;;;;;;4.77;2.67;;;;;3.30;95552.00;;;;8380465;28;20698;-77
2022/01/08 09:26:11;;;;;;;2.80;2.60;;;;;3.50;95565.00;;;;8379827;28;20258;-77
2022/01/08 09:30:14;;;;;;;3.00;2.80;;;;;3.60;95567.00;;;;8383675;28;20227;-76
2022/01/08 09:34:19;;;;;;;4.90;2.10;;;;;3.70;95572.00;;;;8380756;28;20231;-78
2022/01/08 09:38:22;;;;;;;3.83;2.13;;;;;3.70;95571.00;;;;8382557;28;20303;-78
2022/01/08 09:42:27;;;;;;;2.27;2.10;;;;;3.70;95573.00;;;;8380686;28;20284;-77
2022/01/08 09:46:30;;;;;;;2.67;2.00;;;;;3.70;95577.00;;;;8381646;28;20350;-75
2022/01/08 09:50:34;;;;;;;1.80;1.70;;;;;3.70;95579.00;;;;8380221;28;20645;-75
2022/01/08 09:54:37;;;;;;;1.83;1.73;;;;;3.70;95583.00;;;;8382050;28;20265;-73
2022/01/08 09:58:42;;;;;;;1.80;1.70;;;;;3.60;95595.00;;;;8380670;28;20216;-71
2022/01/08 10:02:45;;;;;;;2.13;1.93;;;;;3.60;95595.00;;;;8376614;28;20241;-72
2022/01/08 10:06:49;;;;;;;1.70;1.60;;;;;3.70;95597.00;;;;8380917;28;20934;-75
2022/01/08 10:10:58;;;;;;;1.97;1.83;;;;;3.70;95599.00;;;;8380205;28;20249;-73
2022/01/08 10:19:26;;;;;;;3.87;1.80;;;;;3.70;95616.00;;;;8378721;28;20258;-75
2022/01/08 10:23:31;;;;;;;2.60;1.50;;;;;3.70;95611.00;;;;8379349;28;20630;-70
2022/01/08 10:27:36;;;;;;;1.50;1.40;;;;;3.60;95623.00;;;;8379621;28;20870;-75
2022/01/08 10:31:43;;;;;;;1.43;1.30;;;;;3.50;95629.00;;;;8381342;28;20314;-69
2022/01/08 10:35:50;;;;;;;0.90;0.90;;;;;3.50;95629.00;;;;8376638;28;20243;-72
2022/01/08 10:39:55;;;;;;;1.20;1.20;;;;;3.50;95634.00;;;;8375709;28;20310;-73
2022/01/08 10:44:11;;;;;;;1.00;1.00;;;;;3.40;95636.00;;;;8380029;28;20254;-72
2022/01/08 10:48:25;;;;;;;0.90;0.90;;;;;3.40;95639.00;;;;8379783;28;20219;-72
2022/01/08 10:52:29;;;;;;;1.30;1.30;;;;;3.30;95645.00;;;;8379653;28;20743;-76
2022/01/08 10:56:34;;;;;;;0.97;0.97;;;;;3.30;95649.00;;;;8365935;28;20332;-72
2022/01/08 11:00:38;;;;;;;1.17;1.17;;;;;3.30;95664.00;;;;8373242;28;21464;-78
2022/01/08 11:04:46;;;;;;;1.50;1.40;;;;;3.20;95675.00;;;;8379069;28;20243;-81
2022/01/08 11:09:01;;;;;;;1.47;1.37;;;;;3.10;95674.00;;;;8385497;28;20684;-77
2022/01/08 11:13:04;;;;;;;1.00;0.93;;;;;3.10;95673.00;;;;8385406;28;20560;-79
2022/01/08 11:17:08;;;;;;;1.90;1.20;;;;;3.10;95684.00;;;;8385981;28;20368;-80
2022/01/08 11:21:12;;;;;;;3.43;0.70;;;;;3.10;95683.00;;;;8383261;28;20253;-78
2022/01/08 11:25:17;;;;;;;0.90;0.90;;;;;3.00;95699.00;;;;8385425;28;20833;-80
2022/01/08 11:29:25;;;;;;;1.10;1.10;;;;;3.00;95715.00;;;;8384293;28;20715;-75
2022/01/08 11:33:32;;;;;;;1.57;1.47;;;;;2.90;95710.00;;;;8372535;28;20315;-78
2022/01/08 11:37:38;;;;;;;1.23;1.23;;;;;2.80;95711.00;;;;8384910;28;20289;-77
2022/01/08 11:41:41;;;;;;;1.10;1.00;;;;;2.80;95719.00;;;;8388521;28;20325;-74
2022/01/08 11:45:50;;;;;;;1.60;1.50;;;;;2.70;95733.00;;;;8387579;28;20601;-78
2022/01/08 11:49:53;;;;;;;1.30;1.30;;;;;2.70;95734.00;;;;8385739;28;20807;-76
2022/01/08 11:53:59;;;;;;;3.13;1.77;;;;;2.60;95747.00;;;;8387003;28;20226;-81
2022/01/08 11:58:14;;;;;;;1.90;1.33;;;;;2.70;95750.00;;;;8385200;28;20287;-81
2022/01/08 12:02:19;;;;;;;2.13;1.57;;;;;2.70;95747.00;;;;8382969;28;20235;-79
2022/01/08 12:06:38;;;;;;;2.97;1.47;;;;;2.70;95753.00;;;;8389688;28;20230;-75
2022/01/08 12:11:00;;;;;;;1.30;1.20;;;;;2.60;95748.00;;;;8388204;28;20318;-78
2022/01/08 12:15:03;;;;;;;1.90;1.73;;;;;2.60;95768.00;;;;8386332;28;20646;-79
2022/01/08 12:19:08;;;;;;;5.77;2.60;;;;;2.60;95779.00;;;;8383386;28;20256;-74
2022/01/08 12:23:44;;;;;;;3.47;2.50;;;;;2.60;95782.00;;;;8369761;28;20269;-82
2022/01/08 12:27:49;;;;;;;5.77;2.73;;;;;2.70;95790.00;;;;8279341;28;20236;-80
2022/01/08 12:31:52;;;;;;;3.73;2.50;;;;;2.80;95796.00;;;;8317820;28;21167;-73
2022/01/08 12:36:26;;;;;;;3.87;2.40;;;;;2.70;95796.00;;;;8384972;28;20313;-71
2022/01/08 12:40:37;;;;;;;2.87;2.20;;;;;2.70;95799.00;;;;8382343;28;20230;-73
2022/01/08 12:44:42;;;;;;;8.00;2.90;;;;;2.60;95810.00;;;;8379860;28;20237;-76
2022/01/08 12:49:15;;;;;;;5.60;2.60;;;;;2.50;95811.00;;;;8379405;28;20231;-75
2022/01/08 12:53:27;;;;;;;2.10;1.80;;;;;2.60;95811.00;;;;8289227;28;20216;-77
2022/01/08 12:57:31;;;;;;;7.70;3.03;;;;;2.60;95813.00;;;;8376404;28;20277;-76
2022/01/08 13:01:36;;;;;;;3.27;2.13;;;;;2.60;95812.00;;;;8378034;28;20247;-75
2022/01/08 13:05:39;;;;;;;4.90;2.97;;;;;2.60;95810.00;;;;8372888;28;20241;-74
2022/01/08 13:09:43;;;;;;;7.20;4.17;;;;;2.70;95817.00;;;;8380688;28;20625;-73
2022/01/08 13:13:47;;;;;;;6.27;3.40;;;;;2.70;95810.00;;;;8383113;28;20257;-74
2022/01/08 13:17:52;;;;;;;7.00;4.10;;;;;2.80;95814.00;;;;8378953;28;20267;-75
2022/01/08 13:21:57;;;;;;;8.27;4.27;;;;;2.80;95820.00;;;;8379738;28;20227;-76
2022/01/08 13:26:00;;;;;;;9.87;4.63;;;;;2.90;95809.00;;;;8381520;28;20266;-73
2022/01/08 13:30:04;;;;;;;7.90;3.80;;;;;2.90;95807.00;;;;8371752;28;20322;-73
2022/01/08 13:34:08;;;;;;;15.03;4.90;;;;;2.80;95807.00;;;;8380746;28;20302;-73
2022/01/08 13:38:12;;;;;;;7.47;3.57;;;;;2.80;95812.00;;;;8379938;28;20271;-73
2022/01/08 13:42:26;;;;;;;7.67;4.80;;;;;2.90;95793.00;;;;8383735;28;20733;-72
2022/01/08 13:46:33;;;;;;;8.10;4.30;;;;;2.90;95797.00;;;;8381145;28;20338;-73
2022/01/08 13:50:45;;;;;;;8.33;4.27;;;;;2.90;95788.00;;;;8381680;28;20942;-74
2022/01/08 13:54:48;;;;;;;7.03;3.40;;;;;2.90;95782.00;;;;8379347;28;20230;-73
2022/01/08 13:58:51;;;;;;;9.20;4.03;;;;;2.70;95785.00;;;;8382340;28;20274;-74
2022/01/08 14:02:56;;;;;;;7.53;4.03;;;;;2.60;95785.00;;;;8371082;28;21026;-72
2022/01/08 14:07:01;;;;;;;11.13;5.00;;;;;2.70;95781.00;;;;8380143;28;21022;-72
2022/01/08 14:11:06;;;;;;;11.13;5.33;;;;;2.70;95778.00;;;;8381829;28;20227;-73
2022/01/08 14:15:10;;;;;;;10.07;4.53;;;;;2.70;95773.00;;;;8381901;28;20580;-75
2022/01/08 14:19:14;;;;;;;11.77;4.93;;;;;2.70;95767.00;;;;8381532;28;20257;-75
2022/01/08 14:23:21;;;;;;;7.83;4.30;;;;;2.60;95773.00;;;;8375851;28;20306;-75
2022/01/08 14:27:25;;;;;;;10.17;4.87;;;;;2.50;95776.00;;;;8380473;28;20236;-76
2022/01/08 14:31:30;;;;;;;8.40;3.10;;;;;2.50;95770.00;;;;8374729;28;20268;-76
2022/01/08 14:35:33;;;;;;;9.93;3.33;;;;;2.40;95775.00;;;;8375838;28;20233;-74
2022/01/08 14:39:41;;;;;;;6.93;3.90;;;;;2.30;95764.00;;;;8379641;28;20679;-74
2022/01/08 14:43:44;;;;;;;21.47;7.30;;;;;2.30;95769.00;;;;8380010;28;20730;-73
2022/01/08 14:47:47;;;;;;;6.60;3.90;;;;;2.20;95765.00;;;;8385731;28;20709;-73
2022/01/08 14:51:52;;;;;;;12.13;4.87;;;;;2.20;95764.00;;;;8380435;28;20318;-73
2022/01/08 14:55:56;;;;;;;6.10;4.10;;;;;2.20;95753.00;;;;8378785;28;20337;-71
2022/01/08 15:00:00;;;;;;;13.77;6.00;;;;;2.10;95758.00;;;;8378324;28;21045;-70
2022/01/08 15:04:05;;;;;;;26.23;9.30;;;;;2.10;95767.00;;;;8375991;28;20252;-71
2022/01/08 15:08:08;;;;;;;10.23;5.90;;;;;2.00;95763.00;;;;8379741;28;20240;-68
2022/01/08 15:12:13;;;;;;;12.33;5.00;;;;;2.00;95754.00;;;;8378443;28;20280;-70
2022/01/08 15:16:17;;;;;;;13.70;5.63;;;;;1.90;95748.00;;;;8378642;28;20228;-69
2022/01/08 15:20:20;;;;;;;10.30;5.43;;;;;1.80;95753.00;;;;8379083;28;20313;-69
2022/01/08 15:24:23;;;;;;;12.63;4.63;;;;;1.70;95750.00;;;;8379243;28;20255;-71
2022/01/08 15:28:29;;;;;;;7.73;3.73;;;;;1.50;95745.00;;;;8379303;28;20331;-69
2022/01/08 15:32:36;;;;;;;9.83;4.10;;;;;1.30;95738.00;;;;8361222;28;20253;-68
2022/01/08 15:36:39;;;;;;;11.57;5.00;;;;;0.90;95730.00;;;;8379489;28;20228;-67
2022/01/08 15:40:43;;;;;;;10.70;4.40;;;;;0.60;95732.00;;;;8379571;28;20254;-65
2022/01/08 15:44:49;;;;;;;9.53;4.47;;;;;0.10;95721.00;;;;8377486;28;20734;-69
2022/01/08 15:48:52;;;;;;;6.67;4.20;;;;;-0.20;95722.00;;;;8379990;28;20245;-72
2022/01/08 15:52:55;;;;;;;9.80;4.43;;;;;-0.50;95721.00;;;;8382797;28;20667;-72
2022/01/08 15:56:59;;;;;;;12.03;5.20;;;;;-1.00;95703.00;;;;8382766;28;20651;-71
2022/01/08 16:01:04;;;;;;;13.30;4.80;;;;;-1.40;95698.00;;;;8384036;28;20759;-72
2022/01/08 16:05:08;;;;;;;13.00;5.03;;;;;-1.80;95694.00;;;;8385477;28;20361;-69
2022/01/08 16:09:11;;;;;;;11.87;5.47;;;;;-2.10;95685.00;;;;8385689;28;20955;-72
2022/01/08 16:13:15;;;;;;;14.03;6.03;;;;;-2.40;95671.00;;;;8385770;28;20295;-73
2022/01/08 16:17:20;;;;;;;14.10;5.20;;;;;-2.60;95672.00;;;;8385153;28;20251;-71
2022/01/08 16:21:23;;;;;;;15.17;6.20;;;;;-2.90;95662.00;;;;8378224;28;20251;-71
2022/01/08 16:25:27;;;;;;;20.83;6.63;;;;;-3.10;95650.00;;;;8386548;28;20234;-70
2022/01/08 16:29:30;;;;;;;16.77;6.50;;;;;-3.20;95653.00;;;;8380482;28;20263;-72
2022/01/08 16:33:35;;;;;;;15.57;6.53;;;;;-3.20;95648.00;;;;8382370;28;20291;-72
2022/01/08 16:37:39;;;;;;;14.57;6.27;;;;;-3.30;95636.00;;;;8384024;28;20227;-73
2022/01/08 16:41:42;;;;;;;14.03;6.00;;;;;-3.50;95629.00;;;;8383653;28;20326;-73
2022/01/08 16:45:46;;;;;;;13.43;6.40;;;;;-3.70;95629.00;;;;8384427;28;20266;-71
2022/01/08 16:49:51;;;;;;;14.53;6.57;;;;;-3.70;95608.00;;;;8381636;28;20231;-73
2022/01/08 16:53:54;;;;;;;27.53;9.70;;;;;-3.70;95594.00;;;;8363975;28;20254;-70
2022/01/08 16:57:58;;;;;;;24.57;9.43;;;;;-3.70;95590.00;;;;8373245;28;21022;-73
2022/01/08 17:02:01;;;;;;;14.90;7.13;;;;;-3.70;95593.00;;;;8369470;28;20228;-71
2022/01/08 17:06:07;;;;;;;19.17;7.73;;;;;-3.70;95591.00;;;;8378161;28;20230;-73
2022/01/08 17:10:10;;;;;;;13.87;7.43;;;;;-3.70;95584.00;;;;8379412;28;20244;-72
2022/01/08 17:14:14;;;;;;;15.40;6.93;;;;;-3.70;95585.00;;;;8375155;28;20263;-74
2022/01/08 17:18:18;;;;;;;18.93;7.93;;;;;-3.90;95573.00;;;;8377966;28;20260;-76
2022/01/08 17:22:22;;;;;;;18.93;8.70;;;;;-3.80;95571.00;;;;8377302;28;20326;-72
2022/01/08 17:26:27;;;;;;;19.97;7.57;;;;;-3.80;95560.00;;;;8376956;28;20693;-73
2022/01/08 17:30:31;;;;;;;18.43;7.57;;;;;-3.80;95545.00;;;;8374772;28;20247;-72
2022/01/08 17:34:35;;;;;;;15.70;7.57;;;;;-3.80;95551.00;;;;8377086;28;20334;-72
2022/01/08 17:38:39;;;;;;;14.33;6.60;;;;;-3.80;95545.00;;;;8380088;28;20652;-74
2022/01/08 17:42:42;;;;;;;15.07;6.47;;;;;-3.70;95539.00;;;;8376253;28;20314;-71
2022/01/08 17:46:46;;;;;;;22.77;8.20;;;;;-3.40;95528.00;;;;8375012;28;20229;-73
2022/01/08 17:50:49;;;;;;;17.77;7.40;;;;;-3.10;95521.00;;;;8375289;28;20315;-71
2022/01/08 17:54:54;;;;;;;19.30;7.97;;;;;-2.80;95513.00;;;;8373195;28;20239;-74
2022/01/08 17:58:57;;;;;;;21.90;8.37;;;;;-2.50;95506.00;;;;8378007;28;20254;-71
2022/01/08 18:03:00;;;;;;;16.67;7.80;;;;;-2.20;95492.00;;;;8376422;28;20224;-72
2022/01/08 18:07:04;;;;;;;21.00;8.60;;;;;-1.90;95500.00;;;;8378199;28;20304;-75
2022/01/08 18:11:13;;;;;;;34.03;22.00;;;;;-1.60;95483.00;;;;8375524;28;20353;-72
2022/01/08 18:15:18;;;;;;;41.70;21.83;;;;;-1.30;95483.00;;;;8378362;28;20707;-72
2022/01/08 18:19:22;;;;;;;20.20;8.90;;;;;-0.80;95474.00;;;;8376725;28;20219;-75
2022/01/08 18:23:27;;;;;;;14.83;7.23;;;;;-0.60;95459.00;;;;8376607;28;20222;-72
2022/01/08 18:27:33;;;;;;;17.67;6.73;;;;;-0.30;95445.00;;;;8377913;28;20255;-71
2022/01/08 18:31:36;;;;;;;17.63;8.53;;;;;-0.20;95441.00;;;;8377197;28;20231;-74
2022/01/08 18:35:39;;;;;;;18.50;8.43;;;;;-0.20;95437.00;;;;8356566;28;20307;-73
2022/01/08 18:39:42;;;;;;;14.97;7.70;;;;;-0.10;95426.00;;;;8373682;28;20243;-72
2022/01/08 18:43:48;;;;;;;12.80;6.17;;;;;0.00;95422.00;;;;8374962;28;20564;-73
2022/01/08 18:47:52;;;;;;;11.93;6.17;;;;;0.10;95416.00;;;;8372655;28;20220;-73
2022/01/08 18:51:55;;;;;;;12.90;7.53;;;;;0.20;95425.00;;;;8372762;28;20232;-74
2022/01/08 18:55:59;;;;;;;21.70;6.83;;;;;0.30;95425.00;;;;8374396;28;20737;-72
2022/01/08 19:00:04;;;;;;;23.00;7.93;;;;;0.30;95421.00;;;;8374300;28;20312;-72
2022/01/08 19:04:08;;;;;;;18.83;9.03;;;;;0.30;95406.00;;;;8367765;28;20263;-70
2022/01/08 19:08:12;;;;;;;24.97;10.47;;;;;0.40;95401.00;;;;8376304;28;21007;-71
2022/01/08 19:12:15;;;;;;;15.63;7.40;;;;;0.40;95394.00;;;;8373739;28;20247;-73
2022/01/08 19:16:22;;;;;;;22.70;8.80;;;;;0.50;95376.00;;;;8374028;28;20693;-72
2022/01/08 19:20:25;;;;;;;20.07;8.53;;;;;0.50;95365.00;;;;8373107;28;20259;-72
2022/01/08 19:24:29;;;;;;;16.20;7.70;;;;;0.50;95349.00;;;;8375634;28;20251;-73
2022/01/08 19:28:32;;;;;;;13.13;6.60;;;;;0.60;95338.00;;;;8379903;28;20722;-72
2022/01/08 19:32:37;;;;;;;17.57;7.43;;;;;0.70;95327.00;;;;8381037;28;20224;-73
2022/01/08 19:36:42;;;;;;;16.07;7.13;;;;;0.70;95323.00;;;;8380672;28;20238;-73
2022/01/08 19:40:46;;;;;;;20.13;8.30;;;;;0.70;95308.00;;;;8379480;28;20253;-74
2022/01/08 19:44:49;;;;;;;19.13;7.23;;;;;0.70;95298.00;;;;8377895;28;20303;-74
2022/01/08 19:48:54;;;;;;;15.23;7.10;;;;;0.70;95303.00;;;;8378269;28;20259;-74
2022/01/08 19:52:57;;;;;;;10.77;6.17;;;;;0.80;95308.00;;;;8381294;28;20642;-73
2022/01/08 19:57:01;;;;;;;14.50;7.47;;;;;0.80;95302.00;;;;8379016;28;20255;-73
2022/01/08 20:01:04;;;;;;;19.70;8.83;;;;;0.90;95295.00;;;;8379762;28;20253;-72
2022/01/08 20:05:11;;;;;;;20.70;7.57;;;;;0.90;95267.00;;;;8375686;28;20290;-74
2022/01/08 20:09:14;;;;;;;15.07;5.83;;;;;1.00;95249.00;;;;8371388;28;20309;-73
2022/01/08 20:13:19;;;;;;;10.67;5.77;;;;;1.00;95244.00;;;;8373844;28;20257;-73
2022/01/08 20:17:22;;;;;;;20.20;9.00;;;;;0.90;95245.00;;;;8377572;28;20279;-74
2022/01/08 20:21:27;;;;;;;13.03;5.80;;;;;0.90;95231.00;;;;8378819;28;20252;-72
2022/01/08 20:25:31;;;;;;;17.83;7.30;;;;;0.90;95218.00;;;;8377372;28;20279;-73
2022/01/08 20:29:34;;;;;;;10.60;5.37;;;;;0.80;95213.00;;;;8381965;28;20225;-73
2022/01/08 20:33:39;;;;;;;9.77;4.83;;;;;0.80;95207.00;;;;8383061;28;20745;-74
2022/01/08 20:37:43;;;;;;;27.23;8.60;;;;;0.90;95201.00;;;;8379702;28;20270;-73
2022/01/08 20:41:46;;;;;;;21.33;7.53;;;;;0.90;95204.00;;;;8385227;28;20342;-73
2022/01/08 20:45:49;;;;;;;24.77;9.57;;;;;0.90;95181.00;;;;8381291;28;20824;-74
2022/01/08 20:49:53;;;;;;;27.37;8.60;;;;;1.00;95184.00;;;;8372851;28;20318;-73